sensor_id;sensor_type;location;lat;lon;timestamp;P1;durP1;ratioP1;P2;durP2;ratioP2
505;SDS011;551;48.524;9.056;2023-12-22T00:01:14;1.53;;;1.03;;
505;SDS011;551;48.524;9.056;2023-12-22T00:03:42;2.93;;;1.40;;
505;SDS011;551;48.524;9.056;2023-12-22T00:06:10;3.27;;;1.10;;
505;SDS011;551;48.524;9.056;2023-12-22T00:08:36;1.93;;;1.00;;
505;SDS011;551;48.524;9.056;2023-12-22T00:11:02;3.23;;;1.40;;
505;SDS011;551;48.524;9.056;2023-12-22T00:13:28;2.43;;;1.50;;
505;SDS011;551;48.524;9.056;2023-12-22T00:15:53;2.87;;;1.50;;
505;SDS011;551;48.524;9.056;2023-12-22T00:18:19;2.30;;;1.20;;
505;SDS011;551;48.524;9.056;2023-12-22T00:20:44;2.70;;;1.50;;
505;SDS011;551;48.524;9.056;2023-12-22T00:23:10;3.83;;;1.70;;
505;SDS011;551;48.524;9.056;2023-12-22T00:25:35;4.87;;;1.60;;
505;SDS011;551;48.524;9.056;2023-12-22T00:28:00;2.83;;;1.20;;
505;SDS011;551;48.524;9.056;2023-12-22T00:30:26;6.70;;;1.50;;
505;SDS011;551;48.524;9.056;2023-12-22T00:32:51;3.07;;;1.60;;
505;SDS011;551;48.524;9.056;2023-12-22T00:35:17;3.43;;;1.83;;
505;SDS011;551;48.524;9.056;2023-12-22T00:37:42;1.33;;;1.23;;
505;SDS011;551;48.524;9.056;2023-12-22T00:40:08;4.33;;;1.77;;
505;SDS011;551;48.524;9.056;2023-12-22T00:42:34;2.00;;;1.30;;
505;SDS011;551;48.524;9.056;2023-12-22T00:45:00;3.20;;;1.30;;
505;SDS011;551;48.524;9.056;2023-12-22T00:47:26;3.60;;;1.60;;
505;SDS011;551;48.524;9.056;2023-12-22T00:49:51;1.77;;;1.23;;
505;SDS011;551;48.524;9.056;2023-12-22T00:52:17;2.60;;;1.80;;
505;SDS011;551;48.524;9.056;2023-12-22T00:54:42;1.90;;;1.27;;
505;SDS011;551;48.524;9.056;2023-12-22T00:57:08;4.60;;;1.40;;
505;SDS011;551;48.524;9.056;2023-12-22T00:59:34;2.87;;;1.63;;
505;SDS011;551;48.524;9.056;2023-12-22T01:01:59;4.63;;;1.30;;
505;SDS011;551;48.524;9.056;2023-12-22T01:04:24;5.23;;;1.80;;
505;SDS011;551;48.524;9.056;2023-12-22T01:06:50;1.97;;;1.30;;
505;SDS011;551;48.524;9.056;2023-12-22T01:09:15;5.40;;;1.30;;
505;SDS011;551;48.524;9.056;2023-12-22T01:11:41;3.47;;;1.53;;
505;SDS011;551;48.524;9.056;2023-12-22T01:14:07;6.57;;;1.73;;
505;SDS011;551;48.524;9.056;2023-12-22T01:16:32;5.87;;;1.67;;
505;SDS011;551;48.524;9.056;2023-12-22T01:18:58;3.00;;;1.53;;
505;SDS011;551;48.524;9.056;2023-12-22T01:21:24;3.60;;;1.80;;
505;SDS011;551;48.524;9.056;2023-12-22T01:23:49;6.77;;;1.43;;
505;SDS011;551;48.524;9.056;2023-12-22T01:26:14;3.40;;;1.23;;
505;SDS011;551;48.524;9.056;2023-12-22T01:28:40;3.70;;;1.20;;
505;SDS011;551;48.524;9.056;2023-12-22T01:31:06;1.60;;;1.00;;
505;SDS011;551;48.524;9.056;2023-12-22T01:33:32;1.20;;;1.10;;
505;SDS011;551;48.524;9.056;2023-12-22T01:35:57;1.27;;;1.10;;
505;SDS011;551;48.524;9.056;2023-12-22T01:38:22;5.13;;;1.77;;
505;SDS011;551;48.524;9.056;2023-12-22T01:40:48;2.80;;;1.30;;
505;SDS011;551;48.524;9.056;2023-12-22T01:43:13;0.73;;;0.73;;
505;SDS011;551;48.524;9.056;2023-12-22T01:45:40;1.70;;;0.90;;
505;SDS011;551;48.524;9.056;2023-12-22T01:48:08;0.90;;;0.83;;
505;SDS011;551;48.524;9.056;2023-12-22T01:50:34;2.20;;;0.83;;
505;SDS011;551;48.524;9.056;2023-12-22T01:53:01;1.60;;;0.70;;
505;SDS011;551;48.524;9.056;2023-12-22T01:55:27;0.70;;;0.70;;
505;SDS011;551;48.524;9.056;2023-12-22T01:57:53;1.53;;;0.80;;
505;SDS011;551;48.524;9.056;2023-12-22T02:00:19;1.20;;;0.80;;
505;SDS011;551;48.524;9.056;2023-12-22T02:02:45;1.03;;;0.80;;
505;SDS011;551;48.524;9.056;2023-12-22T02:05:11;1.67;;;0.90;;
505;SDS011;551;48.524;9.056;2023-12-22T02:07:38;0.80;;;0.80;;
505;SDS011;551;48.524;9.056;2023-12-22T02:10:07;1.93;;;0.80;;
505;SDS011;551;48.524;9.056;2023-12-22T02:12:34;1.60;;;0.83;;
505;SDS011;551;48.524;9.056;2023-12-22T02:14:59;3.37;;;1.20;;
505;SDS011;551;48.524;9.056;2023-12-22T02:19:54;1.90;;;0.77;;
505;SDS011;551;48.524;9.056;2023-12-22T02:22:21;4.33;;;0.90;;
505;SDS011;551;48.524;9.056;2023-12-22T02:24:47;1.43;;;1.27;;
505;SDS011;551;48.524;9.056;2023-12-22T02:27:20;1.37;;;0.90;;
505;SDS011;551;48.524;9.056;2023-12-22T02:29:54;1.43;;;1.10;;
505;SDS011;551;48.524;9.056;2023-12-22T02:32:34;1.33;;;1.00;;
505;SDS011;551;48.524;9.056;2023-12-22T02:35:03;1.23;;;1.13;;
505;SDS011;551;48.524;9.056;2023-12-22T02:37:32;1.50;;;1.40;;
505;SDS011;551;48.524;9.056;2023-12-22T02:40:00;1.73;;;1.33;;
505;SDS011;551;48.524;9.056;2023-12-22T02:42:27;4.60;;;1.57;;
505;SDS011;551;48.524;9.056;2023-12-22T02:44:58;4.70;;;1.30;;
505;SDS011;551;48.524;9.056;2023-12-22T02:47:24;7.43;;;1.37;;
505;SDS011;551;48.524;9.056;2023-12-22T02:49:52;2.53;;;1.23;;
505;SDS011;551;48.524;9.056;2023-12-22T02:52:18;3.10;;;1.40;;
505;SDS011;551;48.524;9.056;2023-12-22T02:54:43;2.30;;;1.27;;
505;SDS011;551;48.524;9.056;2023-12-22T02:57:09;2.07;;;1.33;;
505;SDS011;551;48.524;9.056;2023-12-22T02:59:34;3.40;;;1.40;;
505;SDS011;551;48.524;9.056;2023-12-22T03:02:02;7.70;;;1.80;;
505;SDS011;551;48.524;9.056;2023-12-22T03:04:27;1.10;;;1.00;;
505;SDS011;551;48.524;9.056;2023-12-22T03:06:53;4.10;;;1.30;;
505;SDS011;551;48.524;9.056;2023-12-22T03:09:18;2.73;;;1.40;;
505;SDS011;551;48.524;9.056;2023-12-22T03:11:44;1.40;;;1.30;;
505;SDS011;551;48.524;9.056;2023-12-22T03:14:09;3.67;;;1.40;;
505;SDS011;551;48.524;9.056;2023-12-22T03:16:35;2.80;;;1.00;;
505;SDS011;551;48.524;9.056;2023-12-22T03:19:01;4.10;;;0.80;;
505;SDS011;551;48.524;9.056;2023-12-22T03:21:26;1.80;;;1.00;;
505;SDS011;551;48.524;9.056;2023-12-22T03:23:52;1.00;;;0.90;;
505;SDS011;551;48.524;9.056;2023-12-22T03:26:17;5.37;;;1.40;;
505;SDS011;551;48.524;9.056;2023-12-22T03:28:44;1.17;;;1.07;;
505;SDS011;551;48.524;9.056;2023-12-22T03:31:09;2.33;;;1.00;;
505;SDS011;551;48.524;9.056;2023-12-22T03:33:35;3.20;;;1.20;;
505;SDS011;551;48.524;9.056;2023-12-22T03:36:00;1.10;;;1.00;;
505;SDS011;551;48.524;9.056;2023-12-22T03:38:26;3.00;;;1.10;;
505;SDS011;551;48.524;9.056;2023-12-22T03:40:51;4.13;;;1.17;;
505;SDS011;551;48.524;9.056;2023-12-22T03:43:17;0.90;;;0.80;;
505;SDS011;551;48.524;9.056;2023-12-22T03:45:42;1.27;;;1.10;;
505;SDS011;551;48.524;9.056;2023-12-22T03:48:07;4.57;;;1.00;;
505;SDS011;551;48.524;9.056;2023-12-22T03:50:33;1.33;;;0.97;;
505;SDS011;551;48.524;9.056;2023-12-22T03:52:58;1.17;;;1.07;;
505;SDS011;551;48.524;9.056;2023-12-22T03:55:24;1.70;;;1.07;;
505;SDS011;551;48.524;9.056;2023-12-22T03:57:50;2.60;;;1.07;;
505;SDS011;551;48.524;9.056;2023-12-22T04:00:16;1.87;;;0.90;;
505;SDS011;551;48.524;9.056;2023-12-22T04:02:42;3.67;;;1.03;;
505;SDS011;551;48.524;9.056;2023-12-22T04:05:07;3.80;;;1.10;;
505;SDS011;551;48.524;9.056;2023-12-22T04:07:35;2.80;;;1.13;;
505;SDS011;551;48.524;9.056;2023-12-22T04:10:01;3.03;;;1.23;;
505;SDS011;551;48.524;9.056;2023-12-22T04:12:26;4.37;;;1.30;;
505;SDS011;551;48.524;9.056;2023-12-22T04:14:52;2.13;;;1.00;;
505;SDS011;551;48.524;9.056;2023-12-22T04:17:18;6.13;;;1.23;;
505;SDS011;551;48.524;9.056;2023-12-22T04:19:44;4.30;;;1.60;;
505;SDS011;551;48.524;9.056;2023-12-22T04:22:09;10.57;;;1.90;;
505;SDS011;551;48.524;9.056;2023-12-22T04:24:35;5.57;;;1.67;;
505;SDS011;551;48.524;9.056;2023-12-22T04:27:00;7.27;;;1.83;;
505;SDS011;551;48.524;9.056;2023-12-22T04:29:26;8.70;;;1.97;;
505;SDS011;551;48.524;9.056;2023-12-22T04:31:51;6.40;;;2.70;;
505;SDS011;551;48.524;9.056;2023-12-22T04:34:17;2.00;;;1.30;;
505;SDS011;551;48.524;9.056;2023-12-22T04:36:42;4.53;;;1.73;;
505;SDS011;551;48.524;9.056;2023-12-22T04:39:08;2.70;;;1.43;;
505;SDS011;551;48.524;9.056;2023-12-22T04:41:33;4.17;;;1.30;;
505;SDS011;551;48.524;9.056;2023-12-22T04:43:59;5.40;;;1.30;;
505;SDS011;551;48.524;9.056;2023-12-22T04:46:28;2.63;;;1.23;;
505;SDS011;551;48.524;9.056;2023-12-22T04:48:54;6.80;;;2.07;;
505;SDS011;551;48.524;9.056;2023-12-22T04:51:19;4.50;;;1.73;;
505;SDS011;551;48.524;9.056;2023-12-22T04:53:45;4.67;;;1.40;;
505;SDS011;551;48.524;9.056;2023-12-22T04:56:10;4.40;;;1.93;;
505;SDS011;551;48.524;9.056;2023-12-22T04:58:36;6.23;;;1.67;;
505;SDS011;551;48.524;9.056;2023-12-22T05:01:01;3.13;;;1.40;;
505;SDS011;551;48.524;9.056;2023-12-22T05:03:27;9.13;;;1.30;;
505;SDS011;551;48.524;9.056;2023-12-22T05:05:52;2.50;;;1.40;;
505;SDS011;551;48.524;9.056;2023-12-22T05:08:18;2.43;;;1.30;;
505;SDS011;551;48.524;9.056;2023-12-22T05:10:43;2.50;;;1.43;;
505;SDS011;551;48.524;9.056;2023-12-22T05:13:09;3.77;;;1.33;;
505;SDS011;551;48.524;9.056;2023-12-22T05:15:34;3.93;;;1.50;;
505;SDS011;551;48.524;9.056;2023-12-22T05:18:00;4.47;;;2.10;;
505;SDS011;551;48.524;9.056;2023-12-22T05:20:25;7.37;;;1.93;;
505;SDS011;551;48.524;9.056;2023-12-22T05:22:51;6.27;;;2.07;;
505;SDS011;551;48.524;9.056;2023-12-22T05:25:16;6.73;;;2.20;;
505;SDS011;551;48.524;9.056;2023-12-22T05:27:42;4.83;;;2.10;;
505;SDS011;551;48.524;9.056;2023-12-22T05:30:08;4.43;;;1.73;;
505;SDS011;551;48.524;9.056;2023-12-22T05:32:34;2.73;;;1.90;;
505;SDS011;551;48.524;9.056;2023-12-22T05:34:59;4.97;;;2.00;;
505;SDS011;551;48.524;9.056;2023-12-22T05:37:25;7.17;;;1.97;;
505;SDS011;551;48.524;9.056;2023-12-22T05:39:50;5.70;;;2.47;;
505;SDS011;551;48.524;9.056;2023-12-22T05:42:16;3.77;;;2.47;;
505;SDS011;551;48.524;9.056;2023-12-22T05:44:41;10.83;;;2.90;;
505;SDS011;551;48.524;9.056;2023-12-22T05:47:07;7.47;;;2.20;;
505;SDS011;551;48.524;9.056;2023-12-22T05:49:33;6.37;;;2.13;;
505;SDS011;551;48.524;9.056;2023-12-22T05:51:58;7.33;;;2.13;;
505;SDS011;551;48.524;9.056;2023-12-22T05:54:24;3.87;;;2.17;;
505;SDS011;551;48.524;9.056;2023-12-22T05:56:50;4.53;;;1.87;;
505;SDS011;551;48.524;9.056;2023-12-22T05:59:17;6.17;;;2.50;;
505;SDS011;551;48.524;9.056;2023-12-22T06:01:43;6.27;;;1.93;;
505;SDS011;551;48.524;9.056;2023-12-22T06:04:08;5.37;;;2.10;;
505;SDS011;551;48.524;9.056;2023-12-22T06:06:35;2.47;;;1.50;;
505;SDS011;551;48.524;9.056;2023-12-22T06:09:01;6.30;;;2.07;;
505;SDS011;551;48.524;9.056;2023-12-22T06:11:27;5.20;;;2.03;;
505;SDS011;551;48.524;9.056;2023-12-22T06:13:52;5.97;;;2.00;;
505;SDS011;551;48.524;9.056;2023-12-22T06:16:18;4.97;;;1.83;;
505;SDS011;551;48.524;9.056;2023-12-22T06:18:43;5.13;;;1.97;;
505;SDS011;551;48.524;9.056;2023-12-22T06:21:09;8.53;;;2.10;;
505;SDS011;551;48.524;9.056;2023-12-22T06:23:35;5.80;;;2.27;;
505;SDS011;551;48.524;9.056;2023-12-22T06:26:01;7.33;;;2.17;;
505;SDS011;551;48.524;9.056;2023-12-22T06:28:33;6.27;;;2.10;;
505;SDS011;551;48.524;9.056;2023-12-22T06:31:01;7.93;;;2.47;;
505;SDS011;551;48.524;9.056;2023-12-22T06:33:26;4.00;;;1.93;;
505;SDS011;551;48.524;9.056;2023-12-22T06:35:52;12.43;;;2.23;;
505;SDS011;551;48.524;9.056;2023-12-22T06:38:18;4.10;;;2.17;;
505;SDS011;551;48.524;9.056;2023-12-22T06:40:44;5.87;;;2.03;;
505;SDS011;551;48.524;9.056;2023-12-22T06:43:11;4.80;;;1.70;;
505;SDS011;551;48.524;9.056;2023-12-22T06:45:37;4.17;;;1.80;;
505;SDS011;551;48.524;9.056;2023-12-22T06:48:05;11.37;;;2.10;;
505;SDS011;551;48.524;9.056;2023-12-22T06:50:31;6.23;;;1.77;;
505;SDS011;551;48.524;9.056;2023-12-22T06:52:56;7.40;;;2.13;;
505;SDS011;551;48.524;9.056;2023-12-22T06:55:22;4.63;;;1.90;;
505;SDS011;551;48.524;9.056;2023-12-22T06:57:48;6.30;;;1.80;;
505;SDS011;551;48.524;9.056;2023-12-22T07:00:14;6.80;;;2.60;;
505;SDS011;551;48.524;9.056;2023-12-22T07:02:40;4.43;;;1.60;;
505;SDS011;551;48.524;9.056;2023-12-22T07:07:35;8.03;;;1.90;;
505;SDS011;551;48.524;9.056;2023-12-22T07:10:01;21.47;;;2.63;;
505;SDS011;551;48.524;9.056;2023-12-22T07:12:27;4.13;;;1.53;;
505;SDS011;551;48.524;9.056;2023-12-22T07:14:53;4.93;;;1.80;;
505;SDS011;551;48.524;9.056;2023-12-22T07:17:18;11.50;;;1.97;;
505;SDS011;551;48.524;9.056;2023-12-22T07:19:44;5.23;;;1.90;;
505;SDS011;551;48.524;9.056;2023-12-22T07:22:10;6.40;;;2.20;;
505;SDS011;551;48.524;9.056;2023-12-22T07:24:35;3.87;;;1.70;;
505;SDS011;551;48.524;9.056;2023-12-22T07:27:01;6.27;;;2.23;;
505;SDS011;551;48.524;9.056;2023-12-22T07:29:27;8.10;;;1.80;;
505;SDS011;551;48.524;9.056;2023-12-22T07:31:52;5.33;;;2.17;;
505;SDS011;551;48.524;9.056;2023-12-22T07:34:18;9.87;;;2.00;;
505;SDS011;551;48.524;9.056;2023-12-22T07:36:46;3.77;;;1.97;;
505;SDS011;551;48.524;9.056;2023-12-22T07:39:12;15.70;;;2.77;;
505;SDS011;551;48.524;9.056;2023-12-22T07:41:37;7.77;;;2.00;;
505;SDS011;551;48.524;9.056;2023-12-22T07:44:03;6.40;;;2.27;;
505;SDS011;551;48.524;9.056;2023-12-22T07:46:28;8.37;;;2.17;;
505;SDS011;551;48.524;9.056;2023-12-22T07:48:54;6.20;;;2.17;;
505;SDS011;551;48.524;9.056;2023-12-22T07:51:20;5.37;;;2.27;;
505;SDS011;551;48.524;9.056;2023-12-22T07:53:45;5.90;;;2.10;;
505;SDS011;551;48.524;9.056;2023-12-22T07:56:11;11.60;;;2.50;;
505;SDS011;551;48.524;9.056;2023-12-22T07:58:37;7.63;;;3.50;;
505;SDS011;551;48.524;9.056;2023-12-22T08:01:03;6.50;;;2.27;;
505;SDS011;551;48.524;9.056;2023-12-22T08:03:30;6.80;;;2.10;;
505;SDS011;551;48.524;9.056;2023-12-22T08:05:56;10.87;;;2.40;;
505;SDS011;551;48.524;9.056;2023-12-22T08:08:21;4.17;;;2.30;;
505;SDS011;551;48.524;9.056;2023-12-22T08:10:47;5.70;;;2.67;;
505;SDS011;551;48.524;9.056;2023-12-22T08:13:13;12.37;;;2.30;;
505;SDS011;551;48.524;9.056;2023-12-22T08:15:38;3.17;;;1.83;;
505;SDS011;551;48.524;9.056;2023-12-22T08:18:04;8.33;;;2.87;;
505;SDS011;551;48.524;9.056;2023-12-22T08:20:30;7.00;;;2.10;;
505;SDS011;551;48.524;9.056;2023-12-22T08:22:55;6.53;;;2.40;;
505;SDS011;551;48.524;9.056;2023-12-22T08:25:21;8.10;;;2.00;;
505;SDS011;551;48.524;9.056;2023-12-22T08:27:46;8.80;;;2.50;;
505;SDS011;551;48.524;9.056;2023-12-22T08:30:12;3.80;;;2.20;;
505;SDS011;551;48.524;9.056;2023-12-22T08:32:38;7.90;;;2.20;;
505;SDS011;551;48.524;9.056;2023-12-22T08:35:04;8.73;;;2.07;;
505;SDS011;551;48.524;9.056;2023-12-22T08:37:30;14.47;;;3.00;;
505;SDS011;551;48.524;9.056;2023-12-22T08:39:55;6.67;;;2.50;;
505;SDS011;551;48.524;9.056;2023-12-22T08:42:21;10.90;;;2.60;;
505;SDS011;551;48.524;9.056;2023-12-22T08:44:47;13.47;;;2.47;;
505;SDS011;551;48.524;9.056;2023-12-22T08:47:13;9.40;;;2.33;;
505;SDS011;551;48.524;9.056;2023-12-22T08:49:39;7.63;;;2.10;;
505;SDS011;551;48.524;9.056;2023-12-22T08:52:04;5.47;;;2.40;;
505;SDS011;551;48.524;9.056;2023-12-22T08:54:30;8.20;;;2.20;;
505;SDS011;551;48.524;9.056;2023-12-22T08:56:56;5.63;;;2.60;;
505;SDS011;551;48.524;9.056;2023-12-22T08:59:21;3.77;;;2.00;;
505;SDS011;551;48.524;9.056;2023-12-22T09:01:47;6.87;;;2.33;;
505;SDS011;551;48.524;9.056;2023-12-22T09:04:13;9.20;;;2.17;;
505;SDS011;551;48.524;9.056;2023-12-22T09:06:38;3.70;;;2.10;;
505;SDS011;551;48.524;9.056;2023-12-22T09:09:04;5.00;;;1.70;;
505;SDS011;551;48.524;9.056;2023-12-22T09:11:31;11.77;;;3.27;;
505;SDS011;551;48.524;9.056;2023-12-22T09:13:56;6.87;;;2.63;;
505;SDS011;551;48.524;9.056;2023-12-22T09:16:23;7.10;;;2.60;;
505;SDS011;551;48.524;9.056;2023-12-22T09:18:48;8.07;;;2.17;;
505;SDS011;551;48.524;9.056;2023-12-22T09:21:15;4.50;;;1.80;;
505;SDS011;551;48.524;9.056;2023-12-22T09:23:42;8.07;;;2.40;;
505;SDS011;551;48.524;9.056;2023-12-22T09:26:14;4.70;;;2.50;;
505;SDS011;551;48.524;9.056;2023-12-22T09:28:41;3.87;;;2.13;;
505;SDS011;551;48.524;9.056;2023-12-22T09:31:07;6.40;;;2.43;;
505;SDS011;551;48.524;9.056;2023-12-22T09:33:33;9.83;;;2.60;;
505;SDS011;551;48.524;9.056;2023-12-22T09:35:58;4.70;;;2.03;;
505;SDS011;551;48.524;9.056;2023-12-22T09:38:27;15.73;;;3.03;;
505;SDS011;551;48.524;9.056;2023-12-22T09:40:54;4.23;;;2.37;;
505;SDS011;551;48.524;9.056;2023-12-22T09:43:21;7.90;;;2.73;;
505;SDS011;551;48.524;9.056;2023-12-22T09:45:46;8.50;;;2.53;;
505;SDS011;551;48.524;9.056;2023-12-22T09:48:14;6.80;;;2.77;;
505;SDS011;551;48.524;9.056;2023-12-22T09:50:43;2.93;;;2.00;;
505;SDS011;551;48.524;9.056;2023-12-22T09:53:10;5.07;;;2.90;;
505;SDS011;551;48.524;9.056;2023-12-22T09:55:37;11.80;;;3.17;;
505;SDS011;551;48.524;9.056;2023-12-22T09:58:08;7.50;;;2.57;;
505;SDS011;551;48.524;9.056;2023-12-22T10:00:35;4.40;;;2.30;;
505;SDS011;551;48.524;9.056;2023-12-22T10:03:02;5.57;;;2.37;;
505;SDS011;551;48.524;9.056;2023-12-22T10:05:30;13.10;;;2.87;;
505;SDS011;551;48.524;9.056;2023-12-22T10:07:56;8.63;;;2.40;;
505;SDS011;551;48.524;9.056;2023-12-22T10:10:25;8.60;;;2.10;;
505;SDS011;551;48.524;9.056;2023-12-22T10:12:52;7.37;;;2.20;;
505;SDS011;551;48.524;9.056;2023-12-22T10:15:18;5.60;;;3.00;;
505;SDS011;551;48.524;9.056;2023-12-22T10:17:48;7.80;;;2.47;;
505;SDS011;551;48.524;9.056;2023-12-22T10:20:15;5.13;;;2.30;;
505;SDS011;551;48.524;9.056;2023-12-22T10:22:40;6.40;;;2.17;;
505;SDS011;551;48.524;9.056;2023-12-22T10:25:06;11.90;;;2.60;;
505;SDS011;551;48.524;9.056;2023-12-22T10:27:33;7.30;;;2.30;;
505;SDS011;551;48.524;9.056;2023-12-22T10:30:01;8.70;;;2.50;;
505;SDS011;551;48.524;9.056;2023-12-22T10:32:29;14.03;;;2.63;;
505;SDS011;551;48.524;9.056;2023-12-22T10:34:55;7.00;;;2.50;;
505;SDS011;551;48.524;9.056;2023-12-22T10:37:24;15.67;;;3.50;;
505;SDS011;551;48.524;9.056;2023-12-22T10:39:53;10.70;;;2.40;;
505;SDS011;551;48.524;9.056;2023-12-22T10:42:19;6.53;;;2.10;;
505;SDS011;551;48.524;9.056;2023-12-22T10:44:45;8.07;;;2.90;;
505;SDS011;551;48.524;9.056;2023-12-22T10:47:11;5.10;;;2.20;;
505;SDS011;551;48.524;9.056;2023-12-22T10:49:37;6.97;;;2.03;;
505;SDS011;551;48.524;9.056;2023-12-22T10:52:02;8.07;;;2.30;;
505;SDS011;551;48.524;9.056;2023-12-22T10:54:28;18.03;;;3.70;;
505;SDS011;551;48.524;9.056;2023-12-22T10:56:58;6.67;;;1.93;;
505;SDS011;551;48.524;9.056;2023-12-22T10:59:30;9.03;;;2.53;;
505;SDS011;551;48.524;9.056;2023-12-22T11:01:58;4.20;;;2.27;;
505;SDS011;551;48.524;9.056;2023-12-22T11:04:25;7.60;;;2.30;;
505;SDS011;551;48.524;9.056;2023-12-22T11:06:57;9.90;;;3.00;;
505;SDS011;551;48.524;9.056;2023-12-22T11:09:24;4.57;;;2.37;;
505;SDS011;551;48.524;9.056;2023-12-22T11:11:51;7.87;;;2.30;;
505;SDS011;551;48.524;9.056;2023-12-22T11:14:17;7.77;;;3.20;;
505;SDS011;551;48.524;9.056;2023-12-22T11:16:44;5.77;;;3.07;;
505;SDS011;551;48.524;9.056;2023-12-22T11:19:13;7.90;;;2.50;;
505;SDS011;551;48.524;9.056;2023-12-22T11:21:39;4.23;;;2.03;;
505;SDS011;551;48.524;9.056;2023-12-22T11:24:06;6.50;;;2.23;;
505;SDS011;551;48.524;9.056;2023-12-22T11:26:32;6.40;;;2.03;;
505;SDS011;551;48.524;9.056;2023-12-22T11:28:58;10.97;;;2.53;;
505;SDS011;551;48.524;9.056;2023-12-22T11:31:25;6.80;;;2.33;;
505;SDS011;551;48.524;9.056;2023-12-22T11:33:56;6.37;;;2.30;;
505;SDS011;551;48.524;9.056;2023-12-22T11:36:24;5.73;;;2.40;;
505;SDS011;551;48.524;9.056;2023-12-22T11:38:50;7.70;;;2.07;;
505;SDS011;551;48.524;9.056;2023-12-22T11:41:17;5.40;;;2.40;;
505;SDS011;551;48.524;9.056;2023-12-22T11:43:46;2.47;;;1.63;;
505;SDS011;551;48.524;9.056;2023-12-22T11:46:13;8.33;;;2.63;;
505;SDS011;551;48.524;9.056;2023-12-22T11:48:49;2.70;;;2.00;;
505;SDS011;551;48.524;9.056;2023-12-22T11:51:15;5.03;;;1.77;;
505;SDS011;551;48.524;9.056;2023-12-22T11:53:41;5.27;;;2.20;;
505;SDS011;551;48.524;9.056;2023-12-22T11:56:07;5.37;;;1.83;;
505;SDS011;551;48.524;9.056;2023-12-22T12:01:07;2.83;;;1.50;;
505;SDS011;551;48.524;9.056;2023-12-22T12:03:53;2.83;;;1.30;;
505;SDS011;551;48.524;9.056;2023-12-22T12:08:53;4.47;;;1.93;;
505;SDS011;551;48.524;9.056;2023-12-22T12:11:20;6.67;;;2.27;;
505;SDS011;551;48.524;9.056;2023-12-22T12:13:46;3.60;;;2.33;;
505;SDS011;551;48.524;9.056;2023-12-22T12:16:19;2.63;;;1.50;;
505;SDS011;551;48.524;9.056;2023-12-22T12:18:48;2.13;;;1.93;;
505;SDS011;551;48.524;9.056;2023-12-22T12:21:15;2.37;;;2.03;;
505;SDS011;551;48.524;9.056;2023-12-22T12:23:41;3.23;;;1.60;;
505;SDS011;551;48.524;9.056;2023-12-22T12:26:07;2.47;;;1.73;;
505;SDS011;551;48.524;9.056;2023-12-22T12:28:35;3.53;;;1.40;;
505;SDS011;551;48.524;9.056;2023-12-22T12:31:05;2.33;;;1.20;;
505;SDS011;551;48.524;9.056;2023-12-22T12:33:32;1.80;;;1.10;;
505;SDS011;551;48.524;9.056;2023-12-22T12:36:00;1.67;;;1.20;;
505;SDS011;551;48.524;9.056;2023-12-22T12:41:30;1.87;;;1.33;;
505;SDS011;551;48.524;9.056;2023-12-22T12:43:56;2.53;;;1.40;;
505;SDS011;551;48.524;9.056;2023-12-22T12:46:23;1.30;;;1.10;;
505;SDS011;551;48.524;9.056;2023-12-22T12:49:06;1.73;;;1.60;;
505;SDS011;551;48.524;9.056;2023-12-22T12:51:35;3.13;;;1.27;;
505;SDS011;551;48.524;9.056;2023-12-22T12:54:07;1.83;;;1.10;;
505;SDS011;551;48.524;9.056;2023-12-22T12:56:46;2.57;;;1.00;;
505;SDS011;551;48.524;9.056;2023-12-22T12:59:15;1.03;;;0.93;;
505;SDS011;551;48.524;9.056;2023-12-22T13:01:43;1.20;;;1.10;;
505;SDS011;551;48.524;9.056;2023-12-22T13:04:10;2.80;;;1.60;;
505;SDS011;551;48.524;9.056;2023-12-22T13:06:47;1.27;;;1.17;;
505;SDS011;551;48.524;9.056;2023-12-22T13:09:16;1.00;;;0.97;;
505;SDS011;551;48.524;9.056;2023-12-22T13:11:43;1.03;;;1.00;;
505;SDS011;551;48.524;9.056;2023-12-22T13:14:22;1.50;;;1.00;;
505;SDS011;551;48.524;9.056;2023-12-22T13:16:52;0.73;;;0.73;;
505;SDS011;551;48.524;9.056;2023-12-22T13:19:20;1.20;;;1.20;;
505;SDS011;551;48.524;9.056;2023-12-22T13:21:46;0.97;;;0.97;;
505;SDS011;551;48.524;9.056;2023-12-22T13:24:13;1.70;;;1.10;;
505;SDS011;551;48.524;9.056;2023-12-22T13:26:43;2.07;;;1.13;;
505;SDS011;551;48.524;9.056;2023-12-22T13:29:10;1.50;;;1.40;;
505;SDS011;551;48.524;9.056;2023-12-22T13:31:37;1.03;;;0.93;;
505;SDS011;551;48.524;9.056;2023-12-22T13:34:10;2.40;;;1.00;;
505;SDS011;551;48.524;9.056;2023-12-22T13:36:36;2.20;;;1.00;;
505;SDS011;551;48.524;9.056;2023-12-22T13:39:05;1.57;;;1.10;;
505;SDS011;551;48.524;9.056;2023-12-22T13:41:37;1.10;;;1.00;;
505;SDS011;551;48.524;9.056;2023-12-22T13:44:10;1.27;;;1.13;;
505;SDS011;551;48.524;9.056;2023-12-22T13:46:36;1.10;;;1.00;;
505;SDS011;551;48.524;9.056;2023-12-22T13:49:05;0.87;;;0.87;;
505;SDS011;551;48.524;9.056;2023-12-22T13:51:38;0.83;;;0.83;;
505;SDS011;551;48.524;9.056;2023-12-22T13:54:08;0.83;;;0.83;;
505;SDS011;551;48.524;9.056;2023-12-22T13:56:35;0.80;;;0.80;;
505;SDS011;551;48.524;9.056;2023-12-22T13:59:01;1.97;;;1.10;;
505;SDS011;551;48.524;9.056;2023-12-22T14:01:27;1.00;;;0.97;;
505;SDS011;551;48.524;9.056;2023-12-22T14:03:53;1.13;;;1.00;;
505;SDS011;551;48.524;9.056;2023-12-22T14:06:18;0.90;;;0.90;;
505;SDS011;551;48.524;9.056;2023-12-22T14:08:44;1.20;;;0.97;;
505;SDS011;551;48.524;9.056;2023-12-22T14:11:10;0.90;;;0.90;;
505;SDS011;551;48.524;9.056;2023-12-22T14:13:35;1.33;;;1.00;;
505;SDS011;551;48.524;9.056;2023-12-22T14:16:05;0.80;;;0.80;;
505;SDS011;551;48.524;9.056;2023-12-22T14:18:31;0.80;;;0.80;;
505;SDS011;551;48.524;9.056;2023-12-22T14:20:56;1.30;;;1.20;;
505;SDS011;551;48.524;9.056;2023-12-22T14:23:22;1.10;;;1.10;;
505;SDS011;551;48.524;9.056;2023-12-22T14:25:47;1.20;;;1.07;;
505;SDS011;551;48.524;9.056;2023-12-22T14:28:13;0.70;;;0.70;;
505;SDS011;551;48.524;9.056;2023-12-22T14:30:39;1.27;;;1.03;;
505;SDS011;551;48.524;9.056;2023-12-22T14:33:04;1.43;;;1.33;;
505;SDS011;551;48.524;9.056;2023-12-22T14:35:30;1.97;;;1.47;;
505;SDS011;551;48.524;9.056;2023-12-22T14:37:55;1.43;;;1.00;;
505;SDS011;551;48.524;9.056;2023-12-22T14:40:21;0.93;;;0.90;;
505;SDS011;551;48.524;9.056;2023-12-22T14:42:46;0.80;;;0.80;;
505;SDS011;551;48.524;9.056;2023-12-22T14:45:12;1.20;;;1.03;;
505;SDS011;551;48.524;9.056;2023-12-22T14:47:37;0.80;;;0.80;;
505;SDS011;551;48.524;9.056;2023-12-22T14:50:03;1.13;;;0.90;;
505;SDS011;551;48.524;9.056;2023-12-22T14:52:32;1.23;;;1.13;;
505;SDS011;551;48.524;9.056;2023-12-22T14:54:58;2.73;;;0.90;;
505;SDS011;551;48.524;9.056;2023-12-22T14:57:24;1.10;;;1.00;;
505;SDS011;551;48.524;9.056;2023-12-22T14:59:50;1.03;;;0.97;;
505;SDS011;551;48.524;9.056;2023-12-22T15:02:15;0.80;;;0.80;;
505;SDS011;551;48.524;9.056;2023-12-22T15:04:41;0.90;;;0.90;;
505;SDS011;551;48.524;9.056;2023-12-22T15:07:06;1.67;;;0.90;;
505;SDS011;551;48.524;9.056;2023-12-22T15:09:32;1.33;;;1.10;;
505;SDS011;551;48.524;9.056;2023-12-22T15:11:59;1.00;;;1.00;;
505;SDS011;551;48.524;9.056;2023-12-22T15:14:25;1.77;;;1.63;;
505;SDS011;551;48.524;9.056;2023-12-22T15:16:51;1.90;;;1.20;;
505;SDS011;551;48.524;9.056;2023-12-22T15:19:16;1.17;;;1.07;;
505;SDS011;551;48.524;9.056;2023-12-22T15:21:42;1.30;;;1.20;;
505;SDS011;551;48.524;9.056;2023-12-22T15:24:08;2.00;;;1.20;;
505;SDS011;551;48.524;9.056;2023-12-22T15:26:34;1.20;;;1.10;;
505;SDS011;551;48.524;9.056;2023-12-22T15:29:01;1.40;;;1.30;;
505;SDS011;551;48.524;9.056;2023-12-22T15:31:28;1.40;;;1.30;;
505;SDS011;551;48.524;9.056;2023-12-22T15:33:57;1.30;;;1.20;;
505;SDS011;551;48.524;9.056;2023-12-22T15:36:22;1.20;;;1.10;;
505;SDS011;551;48.524;9.056;2023-12-22T15:38:48;1.90;;;1.37;;
505;SDS011;551;48.524;9.056;2023-12-22T15:41:14;1.53;;;1.43;;
505;SDS011;551;48.524;9.056;2023-12-22T15:43:40;1.30;;;1.20;;
505;SDS011;551;48.524;9.056;2023-12-22T15:46:07;5.40;;;1.43;;
505;SDS011;551;48.524;9.056;2023-12-22T15:48:33;1.60;;;1.50;;
505;SDS011;551;48.524;9.056;2023-12-22T15:51:06;1.00;;;1.00;;
505;SDS011;551;48.524;9.056;2023-12-22T15:53:32;3.03;;;1.00;;